createdAt,value
2022-12-15T00:00:17.759Z,1.26
2022-12-15T00:03:02.901Z,1.10
2022-12-15T00:05:49.933Z,1.15
2022-12-15T00:08:35.840Z,1.08
2022-12-15T00:11:21.261Z,1.14
2022-12-15T00:14:06.559Z,1.24
2022-12-15T00:16:51.723Z,1.24
2022-12-15T00:19:37.139Z,1.18
2022-12-15T00:22:23.413Z,1.25
2022-12-15T00:25:08.937Z,1.04
2022-12-15T00:27:54.065Z,1.04
2022-12-15T00:30:39.339Z,0.92
2022-12-15T00:33:28.656Z,1.08
2022-12-15T00:36:13.973Z,1.14
2022-12-15T00:38:42.204Z,1.15
2022-12-15T00:41:09.095Z,1.11
2022-12-15T00:43:36.090Z,1.15
2022-12-15T00:46:21.676Z,1.31
2022-12-15T00:48:48.293Z,1.21
2022-12-15T00:51:15.328Z,1.12
2022-12-15T00:54:01.618Z,1.24
2022-12-15T00:56:46.642Z,1.16
2022-12-15T00:59:31.937Z,1.21
2022-12-15T01:02:17.253Z,1.33
2022-12-15T01:05:02.833Z,1.38
2022-12-15T01:07:49.597Z,1.29
2022-12-15T01:10:35.876Z,1.37
2022-12-15T01:13:21.529Z,1.17
2022-12-15T01:16:06.485Z,1.13
2022-12-15T01:18:52.689Z,1.20
2022-12-15T01:21:24.235Z,1.49
2022-12-15T01:23:51.501Z,1.26
2022-12-15T01:26:18.181Z,1.12
2022-12-15T01:28:44.911Z,1.45
2022-12-15T01:31:11.819Z,1.44
2022-12-15T01:33:38.846Z,1.29
2022-12-15T01:36:05.562Z,1.10
2022-12-15T01:38:32.243Z,1.23
2022-12-15T01:41:02.821Z,1.44
2022-12-15T01:43:32.121Z,1.37
2022-12-15T01:46:11.153Z,1.30
2022-12-15T01:48:39.357Z,1.54
2022-12-15T01:51:31.314Z,1.59
2022-12-15T01:54:06.999Z,1.64
2022-12-15T01:56:37.653Z,1.72
2022-12-15T01:59:05.107Z,1.38
2022-12-15T02:01:31.884Z,1.24
2022-12-15T02:03:58.645Z,1.26
2022-12-15T02:06:25.630Z,1.02
2022-12-15T02:08:52.856Z,1.19
2022-12-15T02:11:46.097Z,1.01
2022-12-15T02:14:14.902Z,1.34
2022-12-15T02:16:47.514Z,1.29
2022-12-15T02:19:34.958Z,1.09
2022-12-15T02:22:23.422Z,1.22
2022-12-15T02:25:05.197Z,1.31
2022-12-15T02:27:57.095Z,1.31
2022-12-15T02:31:08.538Z,1.20
2022-12-15T02:33:35.276Z,1.35
2022-12-15T02:36:38.723Z,1.21
2022-12-15T02:39:05.542Z,1.32
2022-12-15T02:41:36.088Z,1.34
2022-12-15T02:44:22.919Z,1.39
2022-12-15T02:47:13.702Z,1.49
2022-12-15T02:49:55.273Z,1.60
2022-12-15T02:52:42.539Z,1.71
2022-12-15T02:55:12.830Z,1.55
2022-12-15T02:57:53.196Z,1.72
2022-12-15T03:00:19.922Z,1.79
2022-12-15T03:02:49.060Z,1.87
2022-12-15T03:05:15.962Z,1.61
2022-12-15T03:07:43.013Z,1.62
2022-12-15T03:10:10.521Z,1.87
2022-12-15T03:12:37.146Z,1.59
2022-12-15T03:15:04.175Z,1.50
2022-12-15T03:17:30.781Z,1.54
2022-12-15T03:19:57.482Z,1.47
2022-12-15T03:22:24.108Z,1.41
2022-12-15T03:24:50.738Z,1.73
2022-12-15T03:27:17.296Z,1.91
2022-12-15T03:29:43.981Z,1.52
2022-12-15T03:32:10.786Z,1.81
2022-12-15T03:34:37.560Z,1.95
2022-12-15T03:37:04.276Z,1.97
2022-12-15T03:39:30.843Z,1.87
2022-12-15T03:41:57.507Z,1.79
2022-12-15T03:44:24.179Z,1.71
2022-12-15T03:46:50.760Z,1.73
2022-12-15T03:49:17.313Z,1.90
2022-12-15T03:51:45.090Z,1.82
2022-12-15T03:54:14.520Z,1.76
2022-12-15T03:56:41.227Z,1.85
2022-12-15T03:59:07.948Z,1.92
2022-12-15T04:01:35.564Z,1.97
2022-12-15T04:04:02.697Z,1.85
2022-12-15T04:06:29.792Z,1.88
2022-12-15T04:08:56.465Z,1.99
2022-12-15T04:11:23.048Z,1.51
2022-12-15T04:13:49.802Z,1.67
2022-12-15T04:16:20.112Z,1.74
2022-12-15T04:18:47.277Z,1.82
2022-12-15T04:21:13.947Z,1.82
2022-12-15T04:23:59.230Z,1.72
2022-12-15T04:26:44.696Z,1.64
2022-12-15T04:29:30.136Z,1.80
2022-12-15T04:32:15.824Z,1.98
2022-12-15T04:35:01.221Z,2.07
2022-12-15T04:37:46.428Z,2.04
2022-12-15T04:40:31.666Z,1.94
2022-12-15T04:43:16.946Z,2.00
2022-12-15T04:46:02.092Z,2.05
2022-12-15T04:48:47.285Z,1.98
2022-12-15T04:51:32.484Z,2.00
2022-12-15T04:54:17.978Z,2.14
2022-12-15T04:57:03.466Z,2.11
2022-12-15T04:59:48.927Z,2.01
2022-12-15T05:02:34.368Z,2.12
2022-12-15T05:05:19.677Z,2.11
2022-12-15T05:08:04.964Z,1.80
2022-12-15T05:10:50.376Z,1.71
2022-12-15T05:13:35.671Z,1.64
2022-12-15T05:16:21.024Z,1.69
2022-12-15T05:19:06.362Z,1.67
2022-12-15T05:21:51.623Z,1.59
2022-12-15T05:24:37.216Z,1.38
2022-12-15T05:27:22.509Z,1.27
2022-12-15T05:30:08.013Z,1.44
2022-12-15T05:32:34.703Z,1.27
2022-12-15T05:35:01.527Z,1.21
2022-12-15T05:37:28.160Z,1.41
2022-12-15T05:39:54.823Z,1.34
2022-12-15T05:42:21.580Z,1.41
2022-12-15T05:44:48.573Z,1.55
2022-12-15T05:47:16.441Z,1.47
2022-12-15T05:49:43.074Z,1.56
2022-12-15T05:52:09.831Z,1.50
2022-12-15T05:54:36.451Z,1.76
2022-12-15T06:15:37.054Z,2.32
2022-12-15T06:18:03.732Z,1.82
2022-12-15T06:20:30.435Z,1.65
2022-12-15T06:22:57.335Z,2.01
2022-12-15T06:25:23.909Z,2.19
2022-12-15T06:27:50.551Z,2.17
2022-12-15T06:30:17.174Z,2.41
2022-12-15T06:32:43.853Z,2.33
2022-12-15T06:35:10.474Z,2.23
2022-12-15T06:37:37.081Z,2.06
2022-12-15T06:40:04.137Z,1.93
2022-12-15T06:42:30.773Z,1.96
2022-12-15T06:44:57.406Z,2.16
2022-12-15T06:47:24.082Z,2.13
2022-12-15T06:49:50.991Z,2.30
2022-12-15T06:52:17.741Z,2.25
2022-12-15T06:54:44.460Z,2.42
2022-12-15T06:57:11.028Z,2.66
2022-12-15T06:59:37.648Z,2.70
2022-12-15T07:02:04.395Z,2.77
2022-12-15T07:04:32.838Z,2.83
2022-12-15T07:06:59.411Z,2.52
2022-12-15T07:09:26.359Z,2.45
2022-12-15T07:11:53.053Z,2.48
2022-12-15T07:14:19.902Z,2.30
2022-12-15T07:16:46.733Z,2.07
2022-12-15T07:19:13.497Z,1.27
2022-12-15T07:21:41.279Z,1.39
2022-12-15T07:24:10.151Z,1.58
2022-12-15T07:26:36.838Z,1.61
2022-12-15T07:29:03.470Z,1.56
2022-12-15T07:31:30.312Z,1.72
2022-12-15T07:33:58.225Z,1.83
2022-12-15T07:36:24.917Z,1.98
2022-12-15T07:38:52.054Z,1.97
2022-12-15T07:41:19.227Z,1.88
2022-12-15T07:43:47.122Z,2.09
2022-12-15T07:46:14.006Z,2.39
2022-12-15T07:48:40.718Z,1.84
2022-12-15T07:51:12.386Z,2.07
2022-12-15T07:53:42.152Z,2.17
2022-12-15T07:56:09.938Z,2.46
2022-12-15T07:58:37.494Z,2.29
2022-12-15T08:01:08.922Z,2.57
2022-12-15T08:03:36.341Z,2.42
2022-12-15T08:06:11.453Z,2.54
2022-12-15T08:08:38.365Z,2.69
2022-12-15T08:11:06.105Z,2.94
2022-12-15T08:16:20.902Z,2.48
2022-12-15T08:18:48.595Z,2.58
2022-12-15T08:21:15.129Z,2.78
2022-12-15T08:23:41.849Z,2.85
2022-12-15T11:32:09.184Z,8.62
2022-12-15T11:34:37.086Z,8.51
2022-12-15T11:37:14.716Z,8.68
2022-12-15T11:39:41.243Z,8.77
2022-12-15T11:42:14.203Z,8.85
2022-12-15T11:45:03.062Z,9.24
2022-12-15T11:48:08.044Z,9.08
2022-12-15T11:50:53.795Z,8.84
2022-12-15T11:53:43.832Z,8.66
2022-12-15T11:56:40.258Z,8.82
2022-12-15T11:59:34.826Z,8.92
2022-12-15T12:02:25.107Z,9.07
2022-12-15T12:05:16.707Z,8.91
2022-12-15T12:07:50.657Z,9.04
2022-12-15T12:10:44.263Z,8.93
2022-12-15T12:13:21.419Z,8.75
2022-12-15T12:16:27.044Z,8.83
2022-12-15T12:19:06.163Z,8.73
2022-12-15T12:24:41.282Z,8.71
2022-12-15T12:27:35.743Z,8.77
2022-12-15T12:30:05.480Z,8.83
2022-12-15T12:32:42.162Z,8.78
2022-12-15T12:35:30.690Z,8.79
2022-12-15T12:38:04.795Z,8.85
2022-12-15T12:40:40.920Z,8.99
2022-12-15T12:43:13.619Z,8.97
2022-12-15T12:45:53.902Z,9.24
2022-12-15T12:48:34.706Z,9.30
2022-12-15T12:51:17.331Z,9.25
2022-12-15T14:12:41.492Z,9.67
2022-12-15T14:15:13.948Z,9.55
2022-12-15T14:17:40.603Z,9.34
2022-12-15T14:20:19.324Z,9.44
2022-12-15T14:22:46.079Z,9.51
2022-12-15T14:25:25.999Z,9.19
2022-12-15T14:27:52.660Z,9.05
2022-12-15T14:30:33.041Z,9.09
2022-12-15T14:33:07.570Z,9.23
2022-12-15T14:35:42.394Z,9.32
2022-12-15T14:38:13.087Z,9.02
2022-12-15T14:40:39.983Z,9.17
2022-12-15T14:43:09.550Z,9.23
2022-12-15T14:45:36.261Z,9.25
2022-12-15T14:48:40.569Z,8.86
2022-12-15T14:50:54.345Z,8.79
2022-12-15T14:53:21.772Z,8.43
2022-12-15T14:55:48.532Z,7.54
2022-12-15T14:58:35.561Z,7.60
2022-12-15T15:01:03.126Z,7.68
2022-12-15T15:03:12.731Z,8.53
2022-12-15T15:03:38.280Z,7.87
2022-12-15T15:06:11.073Z,7.66
2022-12-15T15:08:47.132Z,7.10
2022-12-15T15:11:31.247Z,6.90
2022-12-15T15:14:04.832Z,7.12
2022-12-15T15:16:31.515Z,7.13
2022-12-15T15:18:59.652Z,6.79
2022-12-15T15:21:27.977Z,6.93
2022-12-15T15:24:05.203Z,6.85
2022-12-15T15:26:31.915Z,6.63
2022-12-15T15:28:58.707Z,6.79
2022-12-15T15:31:28.323Z,7.01
2022-12-15T15:33:57.109Z,6.78
2022-12-15T15:36:26.090Z,6.84
2022-12-15T15:38:52.738Z,6.44
2022-12-15T15:41:22.106Z,6.43
2022-12-15T15:43:48.769Z,6.49
2022-12-15T15:46:17.303Z,6.04
2022-12-15T15:48:46.718Z,5.68
2022-12-15T15:51:14.136Z,5.68
2022-12-15T15:53:40.749Z,5.74
2022-12-15T15:56:09.635Z,5.71
2022-12-15T15:58:36.368Z,5.97
2022-12-15T16:01:06.747Z,5.83
2022-12-15T16:03:36.599Z,5.93
2022-12-15T16:06:04.073Z,5.92
2022-12-15T16:08:35.632Z,6.04
2022-12-15T16:11:02.632Z,5.97
2022-12-15T16:13:29.430Z,5.47
2022-12-15T16:15:56.400Z,5.58
2022-12-15T16:18:23.154Z,5.45
2022-12-15T16:20:50.927Z,5.41
2022-12-15T16:23:19.767Z,5.58
2022-12-15T16:25:54.242Z,5.70
2022-12-15T16:28:28.401Z,5.89
2022-12-15T16:30:55.665Z,6.09
2022-12-15T16:33:22.451Z,5.96
2022-12-15T16:35:49.762Z,5.64
2022-12-15T16:38:26.198Z,5.64
2022-12-15T16:40:53.075Z,5.55
2022-12-15T16:43:23.859Z,5.64
2022-12-15T16:45:51.227Z,5.32
2022-12-15T16:48:18.064Z,5.21
2022-12-15T16:50:47.287Z,4.97
2022-12-15T16:53:19.200Z,4.83
2022-12-15T16:55:45.988Z,4.92
2022-12-15T16:58:16.973Z,5.02
2022-12-15T17:00:44.752Z,5.17
2022-12-15T17:03:15.566Z,5.06
2022-12-15T17:05:43.568Z,4.92
2022-12-15T17:08:14.715Z,4.60
2022-12-15T17:10:41.414Z,4.74
2022-12-15T17:13:27.434Z,5.18
2022-12-15T17:15:56.782Z,4.79
2022-12-15T17:18:23.572Z,4.92
2022-12-15T17:20:50.262Z,4.60
2022-12-15T17:23:18.869Z,4.64
2022-12-15T17:26:19.599Z,4.89
2022-12-15T17:28:36.616Z,4.83
2022-12-15T17:31:03.520Z,4.27
2022-12-15T17:33:31.270Z,4.17
2022-12-15T17:36:02.322Z,4.44
2022-12-15T17:38:28.945Z,4.31
2022-12-15T17:40:55.735Z,4.23
2022-12-15T17:43:24.110Z,4.20
2022-12-15T17:45:51.230Z,4.27
2022-12-15T17:48:17.955Z,4.37
2022-12-15T17:50:49.980Z,4.52
2022-12-15T17:53:17.687Z,4.38
2022-12-15T17:55:44.340Z,4.44
2022-12-15T17:58:21.243Z,4.53
2022-12-15T18:00:51.804Z,4.55
2022-12-15T18:03:19.077Z,4.62
2022-12-15T18:05:50.072Z,4.81
2022-12-15T18:08:24.334Z,4.62
2022-12-15T18:10:53.371Z,4.41
2022-12-15T18:13:21.848Z,4.21
2022-12-15T18:15:48.785Z,3.97
2022-12-15T18:18:15.778Z,3.66
2022-12-15T18:20:42.522Z,3.49
2022-12-15T18:23:23.468Z,3.31
2022-12-15T18:25:50.442Z,3.18
2022-12-15T18:28:22.649Z,3.39
2022-12-15T18:30:50.075Z,3.73
2022-12-15T18:33:16.849Z,3.55
2022-12-15T18:35:45.452Z,3.50
2022-12-15T18:38:25.141Z,3.62
2022-12-15T18:40:57.220Z,3.55
2022-12-15T18:43:25.263Z,3.75
2022-12-15T18:45:52.102Z,3.77
2022-12-15T18:48:20.522Z,3.73
2022-12-15T18:50:47.829Z,3.72
2022-12-15T18:53:28.524Z,3.78
2022-12-15T18:55:55.530Z,3.65
2022-12-15T18:58:27.270Z,3.56
2022-12-15T19:00:57.195Z,3.70
2022-12-15T19:03:24.141Z,3.58
2022-12-15T19:06:00.997Z,3.53
2022-12-15T19:08:27.992Z,3.59
2022-12-15T19:11:01.182Z,3.86
2022-12-15T19:13:32.745Z,3.86
2022-12-15T19:16:00.556Z,3.84
2022-12-15T19:18:46.213Z,3.73
2022-12-15T19:21:57.640Z,3.57
2022-12-15T19:24:44.460Z,3.45
2022-12-15T19:27:12.101Z,3.32
2022-12-15T19:29:39.798Z,3.13
2022-12-15T19:32:07.138Z,3.23
2022-12-15T19:34:34.284Z,3.14
2022-12-15T19:37:01.020Z,3.08
2022-12-15T19:39:27.751Z,2.97
2022-12-15T19:41:54.523Z,2.96
2022-12-15T19:44:21.511Z,2.92
2022-12-15T19:46:48.142Z,2.95
2022-12-15T19:49:14.753Z,3.01
2022-12-15T19:51:41.876Z,2.93
2022-12-15T19:54:10.962Z,2.91
2022-12-15T19:56:37.649Z,2.95
2022-12-15T19:59:04.264Z,3.11
2022-12-15T20:01:31.027Z,3.20
2022-12-15T20:03:57.761Z,3.08
2022-12-15T20:06:25.904Z,3.10
2022-12-15T20:08:54.796Z,3.27
2022-12-15T20:11:25.117Z,3.33
2022-12-15T20:13:51.942Z,3.39
2022-12-15T20:16:19.117Z,3.41
2022-12-15T20:18:46.669Z,3.48
2022-12-15T20:21:15.839Z,3.72
2022-12-15T20:23:48.175Z,3.53
2022-12-15T20:26:14.999Z,3.70
2022-12-15T20:28:41.679Z,3.55
2022-12-15T20:31:12.646Z,3.66
2022-12-15T20:33:39.320Z,3.67
2022-12-15T20:36:09.475Z,3.66
2022-12-15T20:38:36.138Z,3.36
2022-12-15T20:41:03.803Z,3.28
2022-12-15T20:43:31.900Z,3.40
2022-12-15T20:46:11.107Z,3.62
2022-12-15T20:48:37.805Z,3.66
2022-12-15T20:51:09.203Z,3.76
2022-12-15T20:53:37.596Z,4.08
2022-12-15T20:56:04.596Z,3.48
2022-12-15T20:58:33.237Z,3.60
2022-12-15T21:01:00.267Z,3.77
2022-12-15T21:03:28.975Z,3.56
2022-12-15T21:05:56.683Z,3.45
2022-12-15T21:08:25.383Z,3.65
2022-12-15T21:10:52.602Z,3.43
2022-12-15T21:13:25.529Z,3.46
2022-12-15T21:15:52.450Z,3.47
2022-12-15T21:18:57.556Z,3.50
2022-12-15T21:21:06.274Z,3.63
2022-12-15T21:23:33.006Z,3.16
2022-12-15T21:25:59.705Z,3.21
2022-12-15T21:28:26.327Z,3.16
2022-12-15T21:30:53.110Z,3.44
2022-12-15T21:33:20.678Z,3.48
2022-12-15T21:35:47.330Z,3.58
2022-12-15T21:38:34.507Z,3.51
2022-12-15T21:41:03.474Z,3.74
2022-12-15T21:43:32.345Z,3.84
2022-12-15T21:46:00.216Z,4.00
2022-12-15T21:48:45.304Z,3.88
2022-12-15T21:51:15.555Z,3.57
2022-12-15T21:53:43.151Z,3.72
2022-12-15T21:56:16.839Z,4.03
2022-12-15T21:58:43.911Z,4.06
2022-12-15T22:01:14.537Z,4.31
2022-12-15T22:03:44.541Z,4.05
2022-12-15T22:06:21.755Z,4.08
2022-12-15T22:08:48.527Z,3.95
2022-12-15T22:11:33.038Z,3.57
2022-12-15T22:14:01.558Z,3.62
2022-12-15T22:16:28.284Z,3.78
2022-12-15T22:18:55.928Z,3.93
2022-12-15T22:21:25.653Z,4.02
2022-12-15T22:23:52.501Z,4.25
2022-12-15T22:26:23.165Z,4.20
2022-12-15T22:28:50.723Z,4.27
2022-12-15T22:31:17.911Z,4.24
2022-12-15T22:33:44.657Z,3.88
2022-12-15T22:36:11.301Z,3.68
2022-12-15T22:38:37.906Z,3.43
2022-12-15T22:41:04.657Z,3.76
2022-12-15T22:43:39.922Z,3.49
2022-12-15T22:46:08.202Z,3.66
2022-12-15T22:48:37.089Z,3.58
2022-12-15T22:51:04.429Z,3.68
2022-12-15T22:53:32.377Z,3.25
2022-12-15T22:55:59.235Z,3.18
2022-12-15T22:58:29.086Z,3.39
2022-12-15T23:00:56.833Z,3.05
2022-12-15T23:03:23.507Z,3.45
2022-12-15T23:05:50.204Z,3.38
2022-12-15T23:08:18.318Z,3.34
2022-12-15T23:11:03.323Z,3.40
2022-12-15T23:13:30.290Z,3.17
2022-12-15T23:16:15.642Z,3.31
2022-12-15T23:18:42.276Z,3.25
2022-12-15T23:21:09.588Z,3.14
2022-12-15T23:23:37.003Z,3.24
2022-12-15T23:26:04.178Z,3.29
2022-12-15T23:28:31.480Z,3.28
2022-12-15T23:30:58.304Z,3.10
2022-12-15T23:33:26.480Z,3.25
2022-12-15T23:35:54.894Z,3.56
2022-12-15T23:38:21.914Z,3.27
2022-12-15T23:40:52.783Z,3.60
2022-12-15T23:43:20.346Z,3.62
2022-12-15T23:45:49.828Z,3.42
2022-12-15T23:48:16.374Z,3.59
2022-12-15T23:50:42.980Z,3.68
2022-12-15T23:53:09.680Z,3.71
2022-12-15T23:55:36.628Z,3.82
2022-12-15T23:58:03.634Z,3.38
